Northmoor, Missouri
Current Conditions -  °F | °C
As of 2:54 AM on Friday 24 Oct 2014 (Local Time) from KMKC Reporting Station
Haze Haze  
Wind Chill: 56°   Ceiling: Unl
Heat Index: 56°   Visibility: 3mi
Dew Point: 54°   Wind: 6mph
Humidity: 93%   Direction: 200°SSW
Pressure: 30.07"   Gusts: NA
Location:  39.2125°N, 94.6296°W
Report Text: KMKC 240754Z 20005KT 3SM BR CLR 13/12 A3007 RMK AO2 SLP181 T01330122
Loading
Personal Weather Stations






























Interactive Weather Map
Tropical Storm Tracking
New forecast layout! Learn more

10-Day Weather Forecast

Advertisements
Track Severe Weather on mobile